Terminal Aerodrome Forecast
Issued by NWS Grand Forks, ND

Home | Current Version | Previous Version | Graphics & Text | Print | Product List | Glossary On
Versions: 1 2 3 4 5 6 7 8 9 10 11 12 13 14
619
FTUS43 KFGF 181133 AAB
TAFGFK
TAF AMD
KGFK 181133Z 1812/1912 27010KT P6SM FEW200
     FM181800 26006KT P6SM FEW100
     FM182000 23006KT P6SM SCT130
     FM182200 20008KT P6SM SCT250
     FM190200 19008KT P6SM BKN250=

USA.gov is the U.S. government's official web portal to all federal, state and local government web resources and services.